createdAt,value
2022-12-18T00:01:01.125Z,21.6
2022-12-18T00:06:30.603Z,21.6
2022-12-18T00:17:31.589Z,21.6
2022-12-18T00:23:02.163Z,21.6
2022-12-18T00:28:32.652Z,21.5
2022-12-18T00:34:02.151Z,21.5
2022-12-18T00:39:32.607Z,21.5
2022-12-18T00:45:06.390Z,21.5
2022-12-18T00:50:33.724Z,21.5
2022-12-18T00:56:04.249Z,21.5
2022-12-18T01:01:34.806Z,21.5
2022-12-18T01:07:04.156Z,21.5
2022-12-18T01:12:34.607Z,21.5
2022-12-18T01:18:05.197Z,21.4
2022-12-18T01:23:36.062Z,21.4
2022-12-18T01:29:06.168Z,21.4
2022-12-18T01:34:36.789Z,21.4
2022-12-18T01:40:07.260Z,21.4
2022-12-18T01:45:37.746Z,21.4
2022-12-18T01:51:08.360Z,21.4
2022-12-18T01:56:38.807Z,21.4
2022-12-18T02:02:09.473Z,21.4
2022-12-18T02:07:39.884Z,21.4
2022-12-18T02:13:10.484Z,21.4
2022-12-18T02:18:40.838Z,21.3
2022-12-18T02:24:11.424Z,21.3
2022-12-18T02:29:42.104Z,21.3
2022-12-18T02:35:12.598Z,21.3
2022-12-18T02:40:43.079Z,21.3
2022-12-18T02:46:13.701Z,21.3
2022-12-18T02:51:44.173Z,21.3
2022-12-18T02:57:14.737Z,21.3
2022-12-18T03:02:45.517Z,21.2
2022-12-18T03:08:14.726Z,21.2
2022-12-18T03:13:45.210Z,21.2
2022-12-18T03:19:15.894Z,21.3
2022-12-18T03:24:46.243Z,21.2
2022-12-18T03:30:16.729Z,21.2
2022-12-18T03:35:47.456Z,21.2
2022-12-18T03:41:17.887Z,21.2
2022-12-18T03:46:48.495Z,21.2
2022-12-18T03:52:19.099Z,21.2
2022-12-18T03:57:49.437Z,21.2
2022-12-18T04:03:20.586Z,21.2
2022-12-18T04:08:49.525Z,21.2
2022-12-18T04:14:19.874Z,21.2
2022-12-18T04:19:50.576Z,21.2
2022-12-18T04:25:21.180Z,21.2
2022-12-18T04:30:50.610Z,21.2
2022-12-18T04:36:21.070Z,21.2
2022-12-18T04:41:51.680Z,21.2
2022-12-18T04:47:21.059Z,21.1
2022-12-18T04:52:51.523Z,21.1
2022-12-18T04:58:22.141Z,21.1
2022-12-18T05:03:52.694Z,21.1
2022-12-18T05:09:23.077Z,21.1
2022-12-18T05:14:53.807Z,21.1
2022-12-18T05:20:24.255Z,21.1
2022-12-18T05:25:54.738Z,21.1
2022-12-18T05:31:25.530Z,21.1
2022-12-18T05:36:55.797Z,21.1
2022-12-18T05:42:26.272Z,21.1
2022-12-18T05:47:56.981Z,21.1
2022-12-18T05:53:27.345Z,21.1
2022-12-18T05:58:57.925Z,21.1
2022-12-18T06:04:28.527Z,21.1
2022-12-18T06:09:58.884Z,21.1
2022-12-18T06:15:29.527Z,21.1
2022-12-18T06:21:00.131Z,21.1
2022-12-18T06:26:30.496Z,21.1
2022-12-18T06:32:01.148Z,20.9
2022-12-18T06:37:31.657Z,20.7
2022-12-18T06:43:02.135Z,20.7
2022-12-18T06:48:32.735Z,20.7
2022-12-18T06:54:03.332Z,20.6
2022-12-18T06:59:33.801Z,20.5
2022-12-18T07:05:10.273Z,20.4
2022-12-18T07:10:34.951Z,20.3
2022-12-18T07:17:10.433Z,20.1
2022-12-18T07:22:40.872Z,20
2022-12-18T07:28:17.065Z,20
2022-12-18T07:33:42.393Z,20
2022-12-18T07:39:12.438Z,19.9
2022-12-18T07:44:42.022Z,19.8
2022-12-18T07:51:18.538Z,19.8
2022-12-18T07:56:48.976Z,19.8
2022-12-18T08:02:19.847Z,19.7
2022-12-18T08:07:50.103Z,19.7
2022-12-18T08:13:20.605Z,19.8
2022-12-18T08:18:51.326Z,20
2022-12-18T08:24:21.673Z,20.1
2022-12-18T08:29:52.149Z,20.1
2022-12-18T08:35:22.875Z,20.2
2022-12-18T08:40:53.253Z,20.2
2022-12-18T08:46:22.892Z,20.2
2022-12-18T08:51:53.461Z,20.3
2022-12-18T08:57:23.863Z,20.3
2022-12-18T09:02:54.565Z,20.3
2022-12-18T09:08:25.031Z,20.3
2022-12-18T09:13:55.387Z,20.3
2022-12-18T09:19:24.896Z,20.3
2022-12-18T09:24:55.491Z,20.3
2022-12-18T09:30:25.955Z,20.4
2022-12-18T09:35:56.555Z,20.3
2022-12-18T09:41:27.152Z,20.3
2022-12-18T09:46:57.614Z,20.4
2022-12-18T09:52:28.081Z,20.4
2022-12-18T09:57:58.681Z,20.3
2022-12-18T10:03:28.050Z,20.3
2022-12-18T10:08:58.534Z,20.4
2022-12-18T10:14:29.339Z,20.4
2022-12-18T10:19:59.692Z,20.4
2022-12-18T10:25:30.188Z,20.4
2022-12-18T10:31:00.989Z,20.4
2022-12-18T10:36:31.252Z,20.4
2022-12-18T10:42:00.738Z,20.4
2022-12-18T10:47:31.326Z,20.4
2022-12-18T10:53:01.666Z,20.3
2022-12-18T10:58:32.280Z,20.4
2022-12-18T11:04:03.111Z,20.4
2022-12-18T11:09:32.230Z,20.3
2022-12-18T11:15:02.827Z,20.3
2022-12-18T11:20:33.417Z,20.3
2022-12-18T11:26:03.901Z,20.3
2022-12-18T11:31:34.522Z,20.3
2022-12-18T11:37:04.962Z,20.3
2022-12-18T11:42:34.343Z,20.3
2022-12-18T11:48:04.817Z,20.3
2022-12-18T11:53:35.532Z,20.3
2022-12-18T11:59:06.029Z,20.3
2022-12-18T12:04:36.588Z,20.3
2022-12-18T12:10:07.230Z,20.3
2022-12-18T12:15:37.563Z,20.3
2022-12-18T12:21:07.045Z,20.3
2022-12-18T12:26:37.640Z,20.3
2022-12-18T12:32:07.992Z,20.3
2022-12-18T12:37:37.488Z,20.3
2022-12-18T12:43:08.113Z,20.3
2022-12-18T12:48:38.801Z,20.3
2022-12-18T12:54:09.148Z,20.3
2022-12-18T12:59:39.741Z,20.3
2022-12-18T13:05:09.118Z,20.3
2022-12-18T13:10:39.799Z,20.3
2022-12-18T13:16:10.167Z,20.3
2022-12-18T13:21:40.677Z,20.3
2022-12-18T13:27:11.139Z,20.3
2022-12-18T13:34:23.978Z,20.3
2022-12-18T13:39:23.855Z,20.3
2022-12-18T13:44:48.777Z,20.3
2022-12-18T13:51:25.577Z,20.3
2022-12-18T13:56:52.146Z,20.3
2022-12-18T14:02:23.143Z,20.3
2022-12-18T14:09:00.695Z,20.3
2022-12-18T14:14:33.617Z,20.2
2022-12-18T14:20:00.620Z,20.3
2022-12-18T14:25:30.334Z,20.2
2022-12-18T14:31:00.783Z,20.3
2022-12-18T14:36:31.175Z,20.3
2022-12-18T14:42:01.890Z,20.3
2022-12-18T14:47:32.312Z,20.3
2022-12-18T14:53:01.031Z,20.2
2022-12-18T14:58:31.625Z,20.2
2022-12-18T15:04:01.967Z,20.2
2022-12-18T15:09:31.456Z,20.2
2022-12-18T15:15:00.101Z,20.2
2022-12-18T15:20:29.600Z,20.2
2022-12-18T15:26:00.090Z,20.2
2022-12-18T15:31:30.757Z,20.1
2022-12-18T15:37:00.038Z,20.2
2022-12-18T15:42:28.554Z,20.1
2022-12-18T15:47:58.555Z,20.1
2022-12-18T15:53:28.899Z,20.1
2022-12-18T15:58:59.379Z,20.1
2022-12-18T16:04:30.106Z,20.1
2022-12-18T16:10:02.630Z,20.1
2022-12-18T16:15:30.277Z,20.1
2022-12-18T16:21:00.839Z,20.1
2022-12-18T16:26:31.183Z,20.1
2022-12-18T16:32:00.680Z,20.1
2022-12-18T16:37:30.295Z,20.1
2022-12-18T16:42:59.922Z,20.1
2022-12-18T16:48:30.409Z,20.1
2022-12-18T16:54:02.987Z,20.1
2022-12-18T16:59:30.378Z,20
2022-12-18T17:04:59.983Z,20
2022-12-18T17:10:29.728Z,20
2022-12-18T17:16:00.192Z,20
2022-12-18T17:21:30.586Z,20
2022-12-18T17:27:00.173Z,20
2022-12-18T17:32:29.711Z,20
2022-12-18T17:38:00.130Z,20.1
2022-12-18T17:43:30.730Z,20.3
2022-12-18T17:49:00.120Z,20.6
2022-12-18T17:54:29.858Z,20.9
2022-12-18T18:00:00.452Z,21.1
2022-12-18T18:05:30.814Z,21.3
2022-12-18T18:11:01.408Z,21.5
2022-12-18T18:16:31.098Z,21.6
2022-12-18T18:22:01.644Z,21.8
2022-12-18T18:27:38.232Z,21.9
2022-12-18T18:33:04.612Z,22
2022-12-18T18:38:33.055Z,22.1
2022-12-18T18:44:02.910Z,22.1
2022-12-18T18:49:32.679Z,22.2
2022-12-18T18:55:13.353Z,22.3
2022-12-18T19:00:33.742Z,22.4
2022-12-18T19:06:04.341Z,22.4
2022-12-18T19:11:36.568Z,22.5
2022-12-18T19:17:05.435Z,22.5
2022-12-18T19:22:35.033Z,22.5
2022-12-18T19:28:05.390Z,22.5
2022-12-18T19:33:43.273Z,22.5
2022-12-18T19:39:05.651Z,22.5
2022-12-18T19:44:36.368Z,22.4
2022-12-18T19:50:06.922Z,22.3
2022-12-18T19:55:37.461Z,22.3
2022-12-18T20:01:06.900Z,22.2
2022-12-18T20:06:37.293Z,22.1
2022-12-18T20:12:07.294Z,22
2022-12-18T20:17:37.818Z,21.9
2022-12-18T20:23:08.676Z,21.9
2022-12-18T20:28:40.503Z,21.8
2022-12-18T20:34:09.500Z,21.7
2022-12-18T20:39:37.136Z,21.7
2022-12-18T20:45:07.772Z,21.6
2022-12-18T20:50:38.108Z,21.6
2022-12-18T20:56:08.738Z,21.6
2022-12-18T21:01:39.650Z,21.5
2022-12-18T21:07:08.126Z,21.5
2022-12-18T21:12:43.934Z,21.4
2022-12-18T21:18:08.219Z,21.4
2022-12-18T21:23:38.687Z,21.4
2022-12-18T21:29:09.152Z,21.3
2022-12-18T21:34:43.381Z,21.3
2022-12-18T21:40:10.626Z,21.3
2022-12-18T21:45:41.150Z,21.2
2022-12-18T21:51:11.706Z,21.2
2022-12-18T21:56:41.066Z,21.2
2022-12-18T22:02:12.082Z,21.2
2022-12-18T22:07:42.638Z,21.1
2022-12-18T22:13:13.121Z,21.1
2022-12-18T22:18:43.665Z,21.1
2022-12-18T22:24:14.338Z,21.1
2022-12-18T22:29:44.939Z,21
2022-12-18T22:35:15.792Z,21
2022-12-18T22:40:44.065Z,21
2022-12-18T22:46:14.432Z,21
2022-12-18T22:51:44.980Z,21
2022-12-18T22:57:15.736Z,20.9
2022-12-18T23:02:45.515Z,20.9
2022-12-18T23:08:15.823Z,20.9
2022-12-18T23:13:46.423Z,20.9
2022-12-18T23:19:15.774Z,20.9
2022-12-18T23:24:46.273Z,20.9
2022-12-18T23:30:16.014Z,20.9
2022-12-18T23:35:46.369Z,20.9
2022-12-18T23:41:16.883Z,20.8
2022-12-18T23:46:52.455Z,20.9
2022-12-18T23:52:16.099Z,20.8
2022-12-18T23:57:45.736Z,20.8
